createdAt,value
2022-07-31T00:00:39.953Z,48.40
2022-07-31T00:03:42.167Z,48.50
2022-07-31T00:06:44.106Z,48.90
2022-07-31T00:09:53.658Z,48.90
2022-07-31T00:12:56.714Z,49.50
2022-07-31T00:15:58.782Z,50.40
2022-07-31T00:19:00.611Z,50.90
2022-07-31T00:22:02.443Z,51.20
2022-07-31T00:25:04.485Z,51.10
2022-07-31T00:28:06.927Z,50.70
2022-07-31T00:31:09.157Z,51.20
2022-07-31T00:34:10.976Z,50.60
2022-07-31T00:37:12.765Z,51.30
2022-07-31T00:40:15.495Z,51.70
2022-07-31T00:43:17.916Z,51.00
2022-07-31T00:46:19.768Z,51.40
2022-07-31T00:49:25.052Z,51.10
2022-07-31T00:52:26.998Z,51.60
2022-07-31T00:55:28.793Z,52.10
2022-07-31T00:58:30.612Z,53.90
2022-07-31T01:01:32.584Z,51.70
2022-07-31T01:04:34.527Z,52.10
2022-07-31T01:07:37.541Z,52.20
2022-07-31T01:10:52.744Z,52.80
2022-07-31T01:13:58.003Z,53.30
2022-07-31T01:17:00.893Z,53.00
2022-07-31T01:20:03.877Z,53.50
2022-07-31T01:23:41.228Z,53.40
2022-07-31T01:27:25.784Z,52.50
2022-07-31T01:30:33.013Z,53.40
2022-07-31T01:33:40.591Z,54.20
2022-07-31T01:36:47.090Z,54.40
2022-07-31T01:40:01.090Z,55.00
2022-07-31T01:43:08.725Z,54.40
2022-07-31T01:46:12.952Z,54.30
2022-07-31T01:49:15.981Z,55.00
2022-07-31T01:52:18.184Z,53.40
2022-07-31T01:55:20.350Z,54.20
2022-07-31T01:58:24.031Z,53.50
2022-07-31T02:01:27.726Z,54.10
2022-07-31T02:04:32.069Z,54.80
2022-07-31T02:07:36.399Z,55.30
2022-07-31T02:10:39.127Z,55.40
2022-07-31T02:13:41.310Z,55.60
2022-07-31T02:16:44.132Z,55.50
2022-07-31T02:19:59.639Z,55.70
2022-07-31T02:23:02.707Z,56.40
2022-07-31T02:26:04.863Z,55.60
2022-07-31T02:29:08.484Z,54.90
2022-07-31T02:32:23.077Z,55.10
2022-07-31T02:35:25.418Z,55.90
2022-07-31T02:38:27.934Z,55.30
2022-07-31T02:41:31.423Z,55.70
2022-07-31T02:44:33.597Z,56.20
2022-07-31T02:47:36.969Z,54.80
2022-07-31T02:50:43.091Z,57.30
2022-07-31T02:53:45.834Z,57.10
2022-07-31T02:56:47.953Z,57.50
2022-07-31T02:59:49.764Z,57.70
2022-07-31T03:02:52.021Z,57.20
2022-07-31T03:05:53.852Z,57.20
2022-07-31T03:08:55.681Z,58.30
2022-07-31T03:12:04.994Z,58.40
2022-07-31T03:15:09.044Z,58.80
2022-07-31T03:18:12.472Z,58.70
2022-07-31T03:21:16.485Z,59.00
2022-07-31T03:24:18.855Z,58.30
2022-07-31T03:27:20.739Z,58.00
2022-07-31T03:30:22.570Z,58.50
2022-07-31T03:33:24.431Z,57.60
2022-07-31T03:36:26.356Z,58.60
2022-07-31T03:39:28.175Z,58.50
2022-07-31T03:42:34.286Z,58.00
2022-07-31T03:45:38.115Z,57.20
2022-07-31T03:48:40.756Z,57.80
2022-07-31T03:51:43.001Z,57.50
2022-07-31T03:54:45.125Z,58.20
2022-07-31T03:57:52.366Z,59.20
2022-07-31T04:00:56.158Z,59.00
2022-07-31T04:04:01.148Z,58.20
2022-07-31T04:07:09.204Z,57.90
2022-07-31T04:10:11.535Z,58.40
2022-07-31T04:13:13.609Z,59.40
2022-07-31T04:16:16.036Z,59.10
2022-07-31T04:19:17.886Z,59.60
2022-07-31T04:22:19.712Z,59.00
2022-07-31T04:25:22.778Z,59.40
2022-07-31T04:28:44.603Z,58.90
2022-07-31T04:31:46.534Z,58.60
2022-07-31T04:34:57.225Z,58.60
2022-07-31T04:37:59.386Z,58.30
2022-07-31T04:41:03.640Z,57.80
2022-07-31T04:44:05.724Z,58.50
2022-07-31T04:47:24.699Z,58.90
2022-07-31T04:50:27.068Z,58.00
2022-07-31T04:53:33.462Z,57.90
2022-07-31T04:56:40.334Z,58.10
2022-07-31T05:00:00.541Z,58.10
2022-07-31T05:03:05.924Z,57.80
2022-07-31T05:06:11.226Z,57.50
2022-07-31T05:09:18.854Z,58.10
2022-07-31T05:12:21.979Z,58.70
2022-07-31T05:15:23.805Z,58.90
2022-07-31T05:18:25.913Z,59.00
2022-07-31T05:21:53.599Z,59.30
2022-07-31T05:25:11.191Z,59.30
2022-07-31T05:28:13.016Z,58.50
2022-07-31T05:31:16.067Z,59.00
2022-07-31T05:34:18.005Z,60.10
2022-07-31T05:37:20.197Z,57.10
2022-07-31T05:40:22.160Z,56.80
2022-07-31T05:43:42.682Z,56.30
2022-07-31T05:49:53.215Z,55.90
2022-07-31T05:52:56.993Z,57.30
2022-07-31T05:56:24.575Z,54.40
2022-07-31T05:59:27.640Z,55.60
2022-07-31T06:02:29.432Z,54.70
2022-07-31T06:05:51.550Z,53.60
2022-07-31T06:08:53.668Z,52.90
2022-07-31T06:11:55.605Z,54.00
2022-07-31T06:14:57.547Z,52.90
2022-07-31T06:18:13.758Z,51.80
2022-07-31T06:24:16.237Z,53.10
2022-07-31T06:27:34.058Z,52.00
2022-07-31T06:30:37.342Z,52.70
2022-07-31T06:33:39.176Z,52.20
2022-07-31T06:36:41.214Z,53.30
2022-07-31T06:39:55.408Z,51.30
2022-07-31T06:43:13.627Z,51.00
2022-07-31T06:46:34.044Z,51.00
2022-07-31T06:50:08.314Z,52.00
2022-07-31T06:53:13.557Z,52.60
2022-07-31T06:56:16.351Z,50.90
2022-07-31T06:59:39.723Z,50.90
2022-07-31T07:02:42.934Z,51.70
2022-07-31T07:05:45.554Z,51.90
2022-07-31T07:08:49.468Z,51.90
2022-07-31T07:11:54.874Z,50.10
2022-07-31T07:14:57.297Z,47.80
2022-07-31T07:17:59.289Z,50.20
2022-07-31T07:21:11.383Z,48.10
2022-07-31T07:24:13.579Z,47.80
2022-07-31T07:27:34.063Z,46.20
2022-07-31T07:30:37.745Z,44.90
2022-07-31T07:33:42.776Z,43.70
2022-07-31T07:36:56.015Z,44.00
2022-07-31T07:40:04.416Z,41.00
2022-07-31T07:43:06.428Z,42.30
2022-07-31T07:46:08.303Z,42.50
2022-07-31T07:49:12.966Z,42.40
2022-07-31T07:52:20.170Z,41.60
2022-07-31T07:55:52.639Z,40.80
2022-07-31T07:59:23.600Z,40.60
2022-07-31T08:03:50.127Z,39.10
2022-07-31T08:06:25.624Z,37.30
2022-07-31T08:09:27.462Z,36.70
2022-07-31T08:12:58.550Z,38.10
2022-07-31T08:16:00.347Z,36.30
2022-07-31T08:19:07.428Z,35.50
2022-07-31T08:22:10.712Z,34.70
2022-07-31T08:25:14.410Z,37.20
2022-07-31T08:28:19.570Z,37.20
2022-07-31T08:31:26.131Z,36.50
2022-07-31T08:34:55.244Z,37.40
2022-07-31T08:38:03.301Z,38.50
2022-07-31T09:29:08.913Z,33.70
2022-07-31T09:32:15.134Z,35.40
2022-07-31T09:35:50.432Z,34.50
2022-07-31T09:38:53.083Z,35.40
2022-07-31T09:42:17.036Z,34.70
2022-07-31T09:45:32.072Z,35.10
2022-07-31T09:48:34.884Z,33.50
2022-07-31T09:51:41.066Z,33.40
2022-07-31T09:54:44.476Z,34.30
2022-07-31T09:58:03.808Z,33.30
2022-07-31T10:01:13.459Z,35.20
2022-07-31T10:04:20.183Z,36.00
2022-07-31T10:07:24.456Z,34.40
2022-07-31T10:10:40.475Z,33.30
2022-07-31T10:13:57.249Z,31.90
2022-07-31T10:16:59.978Z,32.70
2022-07-31T10:20:26.864Z,30.20
2022-07-31T10:23:47.594Z,31.40
2022-07-31T10:27:00.299Z,29.70
2022-07-31T10:30:05.546Z,31.10
2022-07-31T10:33:27.965Z,30.10
2022-07-31T10:36:50.470Z,31.80
2022-07-31T10:40:03.309Z,31.20
2022-07-31T10:43:18.514Z,29.60
2022-07-31T10:46:31.066Z,31.00
2022-07-31T10:50:01.458Z,32.30
2022-07-31T11:03:22.630Z,30.80
2022-07-31T11:06:43.513Z,29.90
2022-07-31T11:10:10.171Z,29.30
2022-07-31T11:13:52.303Z,30.40
2022-07-31T11:17:09.078Z,31.80
2022-07-31T11:20:35.676Z,31.60
2022-07-31T11:23:37.570Z,30.80
2022-07-31T11:26:43.392Z,31.10
2022-07-31T11:29:59.620Z,30.90
2022-07-31T11:33:05.714Z,32.10
2022-07-31T11:36:07.632Z,31.70
2022-07-31T11:39:12.012Z,32.00
2022-07-31T11:42:13.950Z,31.50
2022-07-31T11:45:18.420Z,33.40
2022-07-31T11:48:20.879Z,31.20
2022-07-31T11:51:22.969Z,31.60
2022-07-31T11:54:25.603Z,29.30
2022-07-31T11:57:51.646Z,31.90
2022-07-31T12:00:57.919Z,31.80
2022-07-31T12:04:08.701Z,32.10
2022-07-31T12:07:11.014Z,31.40
2022-07-31T12:10:13.372Z,32.00
2022-07-31T12:13:16.631Z,31.80
2022-07-31T12:16:18.913Z,31.40
2022-07-31T12:19:30.967Z,31.50
2022-07-31T12:22:39.639Z,32.00
2022-07-31T12:25:42.760Z,33.20
2022-07-31T12:28:44.731Z,33.00
2022-07-31T12:31:50.668Z,32.20
2022-07-31T12:35:05.000Z,32.10
2022-07-31T12:38:23.912Z,32.60
2022-07-31T12:41:29.613Z,32.70
2022-07-31T12:44:31.580Z,31.80
2022-07-31T12:47:34.121Z,30.40
2022-07-31T12:50:36.090Z,31.30
2022-07-31T12:53:38.312Z,32.00
2022-07-31T12:56:40.938Z,31.50
2022-07-31T12:59:42.907Z,30.90
2022-07-31T13:02:45.268Z,31.00
2022-07-31T13:05:51.683Z,30.30
2022-07-31T13:08:54.472Z,29.90
2022-07-31T13:11:58.037Z,33.10
2022-07-31T13:15:00.126Z,31.90
2022-07-31T13:18:02.060Z,32.20
2022-07-31T13:21:04.588Z,31.70
2022-07-31T13:24:06.557Z,31.60
2022-07-31T13:27:08.459Z,32.10
2022-07-31T13:30:10.879Z,31.00
2022-07-31T13:33:12.993Z,30.50
2022-07-31T13:36:14.832Z,31.30
2022-07-31T13:39:16.659Z,31.30
2022-07-31T13:42:21.075Z,32.20
2022-07-31T13:45:24.631Z,30.60
2022-07-31T13:48:26.531Z,31.00
2022-07-31T13:51:28.629Z,31.60
2022-07-31T13:54:30.971Z,30.60
2022-07-31T13:57:32.845Z,29.10
2022-07-31T14:00:34.719Z,30.20
2022-07-31T14:03:36.547Z,30.50
2022-07-31T14:06:38.618Z,31.30
2022-07-31T14:09:51.370Z,29.60
2022-07-31T14:12:57.762Z,31.20
2022-07-31T14:15:59.859Z,31.30
2022-07-31T14:19:01.698Z,30.40
2022-07-31T14:22:03.615Z,31.00
2022-07-31T14:25:05.623Z,29.60
2022-07-31T14:28:08.737Z,31.80
2022-07-31T14:31:10.564Z,29.60
2022-07-31T14:34:12.408Z,30.10
2022-07-31T14:37:14.446Z,29.60
2022-07-31T14:40:16.426Z,29.60
2022-07-31T14:43:18.317Z,32.80
2022-07-31T14:46:20.332Z,32.10
2022-07-31T14:49:22.405Z,32.10
2022-07-31T14:52:24.317Z,31.80
2022-07-31T14:55:28.634Z,30.80
2022-07-31T14:58:30.800Z,32.90
2022-07-31T15:01:36.749Z,32.00
2022-07-31T15:04:38.882Z,31.60
2022-07-31T15:07:46.196Z,31.70
2022-07-31T15:10:48.745Z,31.50
2022-07-31T15:13:50.604Z,31.90
2022-07-31T15:16:52.545Z,32.30
2022-07-31T15:19:54.437Z,32.10
2022-07-31T15:22:56.254Z,30.70
2022-07-31T15:25:58.414Z,31.40
2022-07-31T15:29:00.904Z,31.00
2022-07-31T15:32:02.814Z,30.00
2022-07-31T15:35:05.699Z,30.30
2022-07-31T15:38:07.540Z,31.40
2022-07-31T15:41:09.508Z,30.30
2022-07-31T15:44:11.447Z,31.30
2022-07-31T15:47:13.442Z,29.10
2022-07-31T15:50:17.556Z,29.00
2022-07-31T15:53:19.573Z,29.10
2022-07-31T15:56:21.395Z,28.70
2022-07-31T15:59:23.203Z,29.40
2022-07-31T16:02:25.613Z,28.90
2022-07-31T16:05:36.284Z,28.30
2022-07-31T16:08:39.744Z,28.40
2022-07-31T16:12:05.049Z,29.20
2022-07-31T16:15:07.838Z,29.30
2022-07-31T16:18:10.007Z,30.60
2022-07-31T16:21:20.464Z,29.70
2022-07-31T16:24:22.455Z,28.30
2022-07-31T16:27:24.485Z,28.80
2022-07-31T16:30:26.858Z,28.80
2022-07-31T16:33:28.963Z,31.50
2022-07-31T16:36:30.771Z,33.00
2022-07-31T16:39:32.611Z,31.10
2022-07-31T16:42:34.557Z,31.00
2022-07-31T16:45:36.364Z,29.70
2022-07-31T16:48:38.656Z,37.60
2022-07-31T16:51:40.546Z,32.10
2022-07-31T16:54:42.990Z,34.40
2022-07-31T16:57:44.847Z,33.50
2022-07-31T17:00:47.236Z,36.50
2022-07-31T17:04:00.923Z,35.50
2022-07-31T17:07:05.029Z,36.20
2022-07-31T17:10:07.855Z,39.30
2022-07-31T17:13:10.150Z,33.40
2022-07-31T17:16:12.000Z,38.30
2022-07-31T17:19:13.882Z,35.20
2022-07-31T17:22:17.518Z,31.80
2022-07-31T17:25:21.202Z,30.60
2022-07-31T17:28:23.130Z,32.20
2022-07-31T17:31:25.055Z,33.00
2022-07-31T17:34:30.217Z,35.70
2022-07-31T17:37:32.072Z,35.40
2022-07-31T17:40:43.676Z,35.00
2022-07-31T17:43:50.641Z,31.40
2022-07-31T17:46:55.478Z,31.40
2022-07-31T17:50:00.106Z,34.30
2022-07-31T17:53:02.024Z,34.10
2022-07-31T17:56:03.973Z,32.40
2022-07-31T17:59:05.795Z,38.20
2022-07-31T18:02:08.080Z,35.60
2022-07-31T18:05:10.607Z,33.80
2022-07-31T18:08:12.462Z,33.00
2022-07-31T18:11:14.414Z,34.00
2022-07-31T18:14:16.568Z,34.30
2022-07-31T18:17:20.818Z,33.10
2022-07-31T18:20:22.942Z,34.10
2022-07-31T18:23:24.763Z,34.40
2022-07-31T18:26:26.975Z,32.90
2022-07-31T18:29:28.866Z,34.90
2022-07-31T18:32:30.753Z,36.50
2022-07-31T18:35:32.670Z,35.20
2022-07-31T18:38:34.693Z,33.90
2022-07-31T18:41:36.907Z,35.50
2022-07-31T18:44:39.034Z,35.30
2022-07-31T18:47:40.862Z,35.00
2022-07-31T18:51:00.226Z,38.50
2022-07-31T18:54:04.924Z,35.90
2022-07-31T18:57:06.882Z,40.50
2022-07-31T19:00:09.122Z,36.30
2022-07-31T19:03:10.913Z,38.80
2022-07-31T19:06:12.805Z,36.60
2022-07-31T19:09:15.007Z,38.80
2022-07-31T19:12:16.960Z,37.40
2022-07-31T19:15:19.024Z,36.50
2022-07-31T19:18:28.263Z,36.60
2022-07-31T19:21:42.311Z,37.60
2022-07-31T19:24:44.717Z,43.30
2022-07-31T19:27:48.438Z,39.80
2022-07-31T19:30:52.935Z,37.70
2022-07-31T19:33:54.895Z,37.70
2022-07-31T19:36:56.993Z,41.30
2022-07-31T19:39:59.322Z,38.00
2022-07-31T19:43:01.425Z,42.80
2022-07-31T19:46:11.564Z,39.80
2022-07-31T19:49:14.681Z,40.90
2022-07-31T19:52:16.730Z,41.50
2022-07-31T19:55:19.042Z,42.10
2022-07-31T19:58:20.892Z,40.70
2022-07-31T20:01:22.737Z,40.50
2022-07-31T20:04:24.890Z,41.20
2022-07-31T20:07:32.230Z,42.60
2022-07-31T20:10:37.717Z,42.80
2022-07-31T20:13:39.957Z,42.20
2022-07-31T20:16:42.151Z,42.80
2022-07-31T20:20:11.867Z,41.20
2022-07-31T20:23:06.494Z,43.60
2022-07-31T20:26:09.718Z,42.40
2022-07-31T20:29:11.665Z,41.80
2022-07-31T20:32:13.628Z,43.40
2022-07-31T20:35:33.103Z,43.80
2022-07-31T20:38:37.941Z,43.30
2022-07-31T20:41:39.835Z,45.10
2022-07-31T20:44:41.971Z,43.50
2022-07-31T20:47:43.798Z,44.70
2022-07-31T20:50:48.025Z,45.00
2022-07-31T20:53:53.464Z,44.30
2022-07-31T20:56:55.463Z,45.10
2022-07-31T20:59:59.839Z,44.00
2022-07-31T21:03:01.817Z,44.60
2022-07-31T21:06:04.201Z,45.00
2022-07-31T21:09:06.526Z,46.30
2022-07-31T21:12:08.767Z,42.50
2022-07-31T21:15:28.531Z,44.00
2022-07-31T21:18:34.987Z,44.10
2022-07-31T21:21:37.712Z,44.90
2022-07-31T21:24:39.837Z,44.20
2022-07-31T21:27:47.022Z,44.00
2022-07-31T21:30:49.138Z,44.80
2022-07-31T21:33:51.547Z,44.90
2022-07-31T21:36:53.717Z,44.50
2022-07-31T21:39:56.239Z,46.30
2022-07-31T21:42:58.295Z,45.50
2022-07-31T21:46:02.884Z,46.30
2022-07-31T21:49:05.019Z,45.40
2022-07-31T21:52:07.984Z,45.50
2022-07-31T21:55:12.399Z,45.20
2022-07-31T21:58:14.570Z,46.70
2022-07-31T22:01:16.679Z,46.20
2022-07-31T22:04:18.566Z,46.60
2022-07-31T22:07:23.057Z,45.50
2022-07-31T22:10:25.153Z,45.60
2022-07-31T22:13:29.040Z,46.20
2022-07-31T22:16:30.936Z,46.30
2022-07-31T22:19:36.031Z,46.20
2022-07-31T22:22:46.343Z,45.70
2022-07-31T22:25:48.398Z,47.00
2022-07-31T22:28:51.228Z,45.60
2022-07-31T22:31:54.041Z,46.70
2022-07-31T22:34:56.219Z,46.30
2022-07-31T22:37:58.148Z,45.90
2022-07-31T22:41:00.635Z,45.10
2022-07-31T22:44:13.323Z,46.00
2022-07-31T22:47:17.046Z,45.80
2022-07-31T22:50:18.856Z,46.00
2022-07-31T22:53:23.127Z,45.70
2022-07-31T22:56:25.040Z,45.70
2022-07-31T22:59:27.031Z,46.10
2022-07-31T23:02:29.120Z,45.70
2022-07-31T23:06:02.852Z,46.50
2022-07-31T23:08:54.616Z,47.00
2022-07-31T23:12:01.070Z,47.20
2022-07-31T23:15:03.195Z,47.10
2022-07-31T23:18:05.131Z,47.50
2022-07-31T23:21:08.222Z,48.40
2022-07-31T23:24:10.776Z,47.90
2022-07-31T23:27:12.713Z,47.30
2022-07-31T23:30:14.977Z,47.00
2022-07-31T23:33:17.184Z,47.00
2022-07-31T23:36:19.072Z,48.00
2022-07-31T23:39:20.892Z,47.80
2022-07-31T23:42:22.835Z,48.30
2022-07-31T23:45:24.708Z,47.00
2022-07-31T23:48:29.189Z,48.40
2022-07-31T23:51:32.009Z,47.60
2022-07-31T23:54:34.086Z,48.70
2022-07-31T23:57:36.420Z,49.00
